Terminal Aerodrome Forecast
Issued by NWS

Home | Current Version | Previous Version | Text Only | Print | Product List | Glossary On
Versions: 1 2 3 4 5 6 7 8 9 10 11 12
000
FTUS44 KJAN 300520
TAFGTR
TAF
KGTR 300520Z 3006/3106 19011KT P6SM SCT080 SCT200
     FM300900 21012KT P6SM VCTS BKN070CB OVC100
     FM301000 24015G20KT 4SM -TSRA BKN060CB OVC090
     FM301300 29010KT P6SM VCSH BKN050 OVC090
     FM301600 33008KT P6SM SCT020 SCT200=

USA.gov is the U.S. government's official web portal to all federal, state and local government web resources and services.